createdAt,value
2022-09-23T00:01:17.112Z,94827.09
2022-09-23T00:03:45.701Z,94830.41
2022-09-23T00:06:18.192Z,94830.78
2022-09-23T00:08:45.271Z,94829.84
2022-09-23T00:11:15.422Z,94825.59
2022-09-23T00:13:44.506Z,94818.97
2022-09-23T00:16:17.589Z,94819.13
2022-09-23T00:18:44.861Z,94818.84
2022-09-23T00:21:14.110Z,94815.28
2022-09-23T00:23:43.022Z,94814.00
2022-09-23T00:26:13.085Z,94811.38
2022-09-23T00:28:40.838Z,94818.84
2022-09-23T00:31:10.955Z,94814.31
2022-09-23T00:33:38.142Z,94820.69
2022-09-23T00:36:07.636Z,94818.25
2022-09-23T00:38:34.622Z,94816.88
2022-09-23T00:41:01.609Z,94816.59
2022-09-23T00:43:48.095Z,94815.88
2022-09-23T00:46:25.353Z,94821.13
2022-09-23T00:48:58.530Z,94812.25
2022-09-23T00:51:32.714Z,94813.91
2022-09-23T00:54:00.612Z,94808.41
2022-09-23T00:56:27.667Z,94810.59
2022-09-23T00:58:54.687Z,94815.44
2022-09-23T01:01:21.792Z,94811.22
2022-09-23T01:03:50.305Z,94812.47
2022-09-23T01:06:17.734Z,94813.94
2022-09-23T01:08:47.489Z,94811.13
2022-09-23T01:11:51.597Z,94820.41
2022-09-23T01:15:02.186Z,94823.94
2022-09-23T01:17:44.113Z,94825.47
2022-09-23T01:20:57.219Z,94818.69
2022-09-23T01:24:21.301Z,94822.66
2022-09-23T01:27:30.947Z,94831.59
2022-09-23T01:30:42.450Z,94827.75
2022-09-23T01:33:30.371Z,94819.94
2022-09-23T01:36:27.645Z,94832.13
2022-09-23T01:39:08.006Z,94829.41
2022-09-23T01:42:03.279Z,94833.69
2022-09-23T01:44:43.559Z,94833.69
2022-09-23T01:47:17.934Z,94828.88
2022-09-23T01:50:01.609Z,94827.19
2022-09-23T01:52:43.557Z,94822.25
2022-09-23T01:55:22.510Z,94830.09
2022-09-23T01:58:03.948Z,94838.41
2022-09-23T02:00:35.153Z,94832.25
2022-09-23T02:03:27.669Z,94827.06
2022-09-23T02:06:03.555Z,94826.97
2022-09-23T02:08:35.775Z,94819.38
2022-09-23T02:11:16.441Z,94826.91
2022-09-23T02:14:02.881Z,94830.41
2022-09-23T02:16:39.633Z,94836.47
2022-09-23T02:19:27.268Z,94837.28
2022-09-23T02:22:20.633Z,94829.88
2022-09-23T02:24:49.452Z,94835.25
2022-09-23T02:28:01.511Z,94828.16
2022-09-23T02:30:36.538Z,94828.03
2022-09-23T02:33:11.990Z,94830.50
2022-09-23T02:36:46.327Z,94830.09
2022-09-23T02:39:15.088Z,94832.47
2022-09-23T02:42:06.431Z,94829.53
2022-09-23T02:44:34.251Z,94826.28
2022-09-23T02:47:01.370Z,94831.66
2022-09-23T02:49:30.439Z,94836.53
2022-09-23T02:52:00.159Z,94842.56
2022-09-23T02:54:28.979Z,94841.56
2022-09-23T02:56:57.471Z,94851.72
2022-09-23T02:59:24.888Z,94843.22
2022-09-23T03:02:28.229Z,94841.09
2022-09-23T03:05:27.182Z,94846.94
2022-09-23T03:08:28.303Z,94848.25
2022-09-23T03:11:17.225Z,94841.59
2022-09-23T03:14:25.717Z,94842.88
2022-09-23T03:17:07.647Z,94843.66
2022-09-23T03:19:47.957Z,94839.13
2022-09-23T03:22:31.936Z,94843.00
2022-09-23T03:25:07.308Z,94838.50
2022-09-23T03:27:36.723Z,94842.56
2022-09-23T03:30:05.084Z,94838.31
2022-09-23T03:32:35.020Z,94843.19
2022-09-23T03:35:04.462Z,94844.84
2022-09-23T03:37:36.696Z,94839.22
2022-09-23T03:40:17.971Z,94848.22
2022-09-23T03:42:49.151Z,94841.31
2022-09-23T03:45:22.839Z,94843.78
2022-09-23T03:47:49.767Z,94846.19
2022-09-23T03:50:20.331Z,94855.34
2022-09-23T03:52:48.316Z,94854.84
2022-09-23T03:55:16.541Z,94856.47
2022-09-23T03:57:44.905Z,94859.94
2022-09-23T04:00:13.494Z,94862.38
2022-09-23T04:02:41.178Z,94861.28
2022-09-23T04:05:09.106Z,94859.97
2022-09-23T04:07:36.198Z,94863.69
2022-09-23T04:10:05.069Z,94865.84
2022-09-23T04:12:32.030Z,94870.63
2022-09-23T04:14:59.017Z,94867.19
2022-09-23T04:17:25.983Z,94870.38
2022-09-23T04:19:53.059Z,94870.41
2022-09-23T04:22:20.013Z,94869.88
2022-09-23T04:24:47.101Z,94868.56
2022-09-23T04:27:14.038Z,94873.88
2022-09-23T04:29:40.981Z,94876.28
2022-09-23T04:32:07.928Z,94874.41
2022-09-23T04:34:34.815Z,94881.91
2022-09-23T04:37:02.551Z,94883.22
2022-09-23T04:39:29.556Z,94891.78
2022-09-23T04:41:56.557Z,94889.38
2022-09-23T04:44:23.771Z,94896.56
2022-09-23T04:46:52.094Z,94906.47
2022-09-23T04:49:19.565Z,94904.34
2022-09-23T04:51:46.576Z,94904.59
2022-09-23T04:54:15.191Z,94909.13
2022-09-23T04:56:45.427Z,94907.00
2022-09-23T04:59:12.525Z,94905.41
2022-09-23T05:01:39.607Z,94909.41
2022-09-23T05:04:10.417Z,94896.25
2022-09-23T05:06:37.581Z,94906.38
2022-09-23T05:09:07.725Z,94907.41
2022-09-23T05:11:35.189Z,94910.88
2022-09-23T05:14:02.184Z,94901.97
2022-09-23T05:16:30.175Z,94907.81
2022-09-23T05:18:58.360Z,94909.94
2022-09-23T05:21:29.254Z,94912.56
2022-09-23T05:23:59.836Z,94898.66
2022-09-23T05:26:32.189Z,94908.81
2022-09-23T05:29:00.211Z,94909.31
2022-09-23T05:31:29.188Z,94907.16
2022-09-23T05:34:02.239Z,94909.81
2022-09-23T05:36:35.603Z,94911.38
2022-09-23T05:39:05.332Z,94922.59
2022-09-23T05:41:34.612Z,94918.25
2022-09-23T05:44:02.225Z,94921.13
2022-09-23T05:46:31.028Z,94920.75
2022-09-23T05:49:03.540Z,94910.00
2022-09-23T05:51:38.645Z,94914.47
2022-09-23T05:54:07.026Z,94917.59
2022-09-23T05:56:38.477Z,94919.81
2022-09-23T05:59:07.373Z,94913.00
2022-09-23T06:01:36.824Z,94914.59
2022-09-23T06:04:06.213Z,94917.34
2022-09-23T06:06:42.159Z,94917.91
2022-09-23T06:09:13.586Z,94912.13
2022-09-23T06:11:41.300Z,94917.72
2022-09-23T06:14:13.714Z,94913.69
2022-09-23T06:16:40.837Z,94914.00
2022-09-23T06:19:07.887Z,94912.78
2022-09-23T06:21:37.947Z,94915.72
2022-09-23T06:24:06.888Z,94919.31
2022-09-23T06:26:35.517Z,94918.97
2022-09-23T06:29:04.616Z,94923.84
2022-09-23T06:31:32.389Z,94909.38
2022-09-23T06:34:09.643Z,94907.69
2022-09-23T06:36:43.878Z,94910.59
2022-09-23T06:39:13.481Z,94914.19
2022-09-23T06:41:40.747Z,94912.69
2022-09-23T06:44:12.789Z,94908.44
2022-09-23T06:46:40.796Z,94914.00
2022-09-23T06:49:08.654Z,94909.22
2022-09-23T06:51:35.614Z,94911.78
2022-09-23T06:54:02.979Z,94920.56
2022-09-23T06:56:33.484Z,94926.75
2022-09-23T06:59:03.466Z,94927.97
2022-09-23T07:01:30.565Z,94929.06
2022-09-23T07:03:57.879Z,94933.44
2022-09-23T07:06:24.976Z,94927.25
2022-09-23T07:08:53.600Z,94934.81
2022-09-23T07:11:23.612Z,94927.31
2022-09-23T07:13:51.226Z,94929.34
2022-09-23T07:16:18.497Z,94940.41
2022-09-23T07:18:45.967Z,94948.19
2022-09-23T07:21:16.004Z,94936.06
2022-09-23T07:23:48.172Z,94934.47
2022-09-23T07:26:15.986Z,94928.84
2022-09-23T07:28:43.564Z,94931.53
2022-09-23T07:31:13.365Z,94939.00
2022-09-23T07:33:44.437Z,94946.25
2022-09-23T07:36:14.723Z,94951.03
2022-09-23T07:38:45.414Z,94944.50
2022-09-23T07:41:17.640Z,94940.97
2022-09-23T07:43:47.442Z,94937.97
2022-09-23T07:46:17.774Z,94946.69
2022-09-23T07:48:46.130Z,94950.34
2022-09-23T07:51:19.302Z,94945.97
2022-09-23T07:53:53.991Z,94950.56
2022-09-23T07:56:24.380Z,94952.75
2022-09-23T07:59:00.538Z,94953.38
2022-09-23T08:01:36.455Z,94946.78
2022-09-23T08:04:08.808Z,94956.66
2022-09-23T08:06:37.202Z,94946.97
2022-09-23T08:09:04.810Z,94953.78
2022-09-23T08:11:31.953Z,94950.88
2022-09-23T08:13:59.391Z,94960.31
2022-09-23T08:16:27.131Z,94953.63
2022-09-23T08:18:54.640Z,94950.91
2022-09-23T08:21:22.846Z,94946.19
2022-09-23T08:23:50.245Z,94944.28
2022-09-23T08:26:21.579Z,94945.19
2022-09-23T08:28:49.466Z,94948.78
2022-09-23T08:31:17.074Z,94942.59
2022-09-23T08:33:44.645Z,94945.16
2022-09-23T08:36:11.649Z,94934.72
2022-09-23T08:38:38.701Z,94936.69
2022-09-23T08:41:33.688Z,94928.69
2022-09-23T08:44:19.558Z,94940.38
2022-09-23T08:47:23.456Z,94943.47
2022-09-23T08:50:01.862Z,94931.06
2022-09-23T08:52:34.873Z,94933.09
2022-09-23T08:55:03.802Z,94937.03
2022-09-23T08:57:40.221Z,94932.00
2022-09-23T09:00:08.042Z,94933.72
2022-09-23T09:02:36.871Z,94924.16
2022-09-23T09:05:09.414Z,94925.78
2022-09-23T09:07:40.357Z,94917.00
2022-09-23T09:10:28.935Z,94922.06
2022-09-23T09:13:10.195Z,94914.75
2022-09-23T09:15:43.490Z,94928.94
2022-09-23T09:18:21.012Z,94926.38
2022-09-23T09:21:14.683Z,94926.91
2022-09-23T09:24:00.481Z,94927.09
2022-09-23T09:26:30.430Z,94926.22
2022-09-23T09:29:36.185Z,94925.03
2022-09-23T09:32:36.402Z,94932.22
2022-09-23T09:35:17.352Z,94931.63
2022-09-23T09:37:47.930Z,94932.16
2022-09-23T09:40:17.497Z,94932.16
2022-09-23T09:42:49.959Z,94915.97
2022-09-23T09:45:59.365Z,94923.16
2022-09-23T09:48:53.858Z,94928.75
2022-09-23T09:51:23.278Z,94928.56
2022-09-23T09:53:53.830Z,94930.81
2022-09-23T09:56:27.650Z,94924.06
2022-09-23T09:59:08.627Z,94924.59
2022-09-23T10:01:36.174Z,94926.78
2022-09-23T10:04:20.417Z,94927.59
2022-09-23T10:07:27.852Z,94917.75
2022-09-23T10:09:58.354Z,94920.63
2022-09-23T10:12:44.198Z,94912.13
2022-09-23T10:15:33.351Z,94908.78
2022-09-23T10:18:02.328Z,94915.97
2022-09-23T10:20:39.231Z,94923.16
2022-09-23T10:23:08.536Z,94906.53
2022-09-23T10:25:36.758Z,94911.56
2022-09-23T10:28:53.052Z,94904.06
2022-09-23T10:31:26.929Z,94898.50
2022-09-23T10:33:57.655Z,94883.31
2022-09-23T10:36:25.167Z,94894.78
2022-09-23T10:39:36.631Z,94895.84
2022-09-23T10:43:01.307Z,94887.16
2022-09-23T10:45:58.230Z,94892.41
2022-09-23T10:49:10.310Z,94888.69
2022-09-23T10:52:31.449Z,94883.97
2022-09-23T10:55:11.804Z,94879.84
2022-09-23T10:58:17.793Z,94873.66
2022-09-23T11:01:12.872Z,94867.94
2022-09-23T11:07:54.852Z,94868.59
2022-09-23T11:33:14.350Z,94847.47
2022-09-23T11:36:02.842Z,94853.44
2022-09-23T11:38:47.723Z,94856.00
2022-09-23T11:41:29.824Z,94846.16
2022-09-23T11:44:04.544Z,94836.53
2022-09-23T11:46:38.325Z,94843.28
2022-09-23T11:49:17.188Z,94841.56
2022-09-23T11:52:13.293Z,94840.28
2022-09-23T11:54:47.044Z,94828.38
2022-09-23T11:57:41.969Z,94836.81
2022-09-23T12:00:24.669Z,94831.50
2022-09-23T12:03:18.611Z,94832.72
2022-09-23T12:05:51.626Z,94841.84
2022-09-23T12:08:30.086Z,94833.31
2022-09-23T12:11:21.899Z,94835.44
2022-09-23T12:13:57.149Z,94831.97
2022-09-23T12:16:57.121Z,94837.09
2022-09-23T12:20:05.780Z,94830.31
2022-09-23T12:23:07.774Z,94829.22
2022-09-23T12:25:48.799Z,94817.47
2022-09-23T12:28:23.238Z,94815.56
2022-09-23T12:30:53.458Z,94819.94
2022-09-23T12:33:29.053Z,94832.50
2022-09-23T12:36:28.348Z,94823.31
2022-09-23T12:39:35.705Z,94821.28
2022-09-23T12:42:06.401Z,94820.66
2022-09-23T12:44:42.048Z,94821.59
2022-09-23T12:47:38.533Z,94810.22
2022-09-23T12:50:44.002Z,94820.34
2022-09-23T12:53:56.109Z,94812.38
2022-09-23T12:56:28.789Z,94810.84
2022-09-23T12:59:20.612Z,94817.97
2022-09-23T13:01:47.981Z,94817.50
2022-09-23T13:05:02.584Z,94816.41
2022-09-23T13:07:34.305Z,94818.28
2022-09-23T13:10:09.235Z,94811.66
2022-09-23T13:12:39.933Z,94818.41
2022-09-23T13:15:18.362Z,94819.22
2022-09-23T13:17:45.566Z,94824.06
2022-09-23T13:20:42.071Z,94821.31
2022-09-23T13:23:30.527Z,94815.50
2022-09-23T13:26:00.780Z,94821.25
2022-09-23T13:28:44.875Z,94805.63
2022-09-23T13:31:16.855Z,94808.16
2022-09-23T13:34:04.926Z,94817.88
2022-09-23T13:36:44.524Z,94811.09
2022-09-23T13:39:23.883Z,94800.72
2022-09-23T13:41:54.151Z,94801.25
2022-09-23T13:44:21.915Z,94792.50
2022-09-23T13:46:52.660Z,94802.56
2022-09-23T13:49:25.994Z,94803.72
2022-09-23T13:51:54.330Z,94799.16
2022-09-23T13:54:33.624Z,94801.34
2022-09-23T13:57:00.755Z,94795.63
2022-09-23T13:59:30.512Z,94793.28
2022-09-23T14:02:17.032Z,94794.22
2022-09-23T14:04:45.024Z,94791.00
2022-09-23T14:07:17.000Z,94792.38
2022-09-23T14:09:47.782Z,94785.25
2022-09-23T14:12:15.896Z,94795.91
2022-09-23T14:14:43.600Z,94786.03
2022-09-23T14:17:18.870Z,94786.59
2022-09-23T14:19:47.282Z,94787.13
2022-09-23T14:22:28.538Z,94780.56
2022-09-23T14:24:57.857Z,94775.00
2022-09-23T14:27:31.002Z,94777.34
2022-09-23T14:29:58.687Z,94776.38
2022-09-23T14:32:28.902Z,94783.13
2022-09-23T14:35:16.624Z,94780.03
2022-09-23T14:38:04.533Z,94773.88
2022-09-23T14:40:34.406Z,94778.75
2022-09-23T14:43:28.387Z,94774.94
2022-09-23T14:45:58.085Z,94776.66
2022-09-23T14:48:28.886Z,94782.66
2022-09-23T14:50:59.380Z,94771.81
2022-09-23T14:53:48.871Z,94779.88
2022-09-23T14:56:19.548Z,94771.09
2022-09-23T14:58:58.334Z,94770.09
2022-09-23T15:01:39.378Z,94763.63
2022-09-23T15:04:18.569Z,94760.78
2022-09-23T15:06:51.050Z,94763.03
2022-09-23T15:09:23.953Z,94753.22
2022-09-23T15:12:01.775Z,94759.13
2022-09-23T15:14:38.467Z,94753.84
2022-09-23T15:17:15.610Z,94755.59
2022-09-23T15:19:42.883Z,94754.66
2022-09-23T15:22:10.312Z,94760.94
2022-09-23T15:24:43.819Z,94768.78
2022-09-23T15:27:32.470Z,94763.97
2022-09-23T15:30:18.202Z,94765.00
2022-09-23T15:32:46.268Z,94762.38
2022-09-23T15:35:15.937Z,94766.31
2022-09-23T15:37:43.925Z,94767.69
2022-09-23T15:40:32.967Z,94771.75
2022-09-23T15:43:02.705Z,94777.84
2022-09-23T15:45:40.424Z,94781.16
2022-09-23T15:48:12.076Z,94782.84
2022-09-23T15:50:41.577Z,94783.28
2022-09-23T15:53:21.983Z,94791.00
2022-09-23T15:55:51.768Z,94789.75
2022-09-23T15:58:23.664Z,94794.09
2022-09-23T16:00:56.365Z,94806.31
2022-09-23T16:03:30.945Z,94804.88
2022-09-23T16:06:03.407Z,94801.50
2022-09-23T16:08:33.299Z,94795.84
2022-09-23T16:11:00.615Z,94797.00
2022-09-23T16:13:27.689Z,94803.53
2022-09-23T16:15:54.661Z,94799.47
2022-09-23T16:18:21.733Z,94816.81
2022-09-23T16:20:50.388Z,94811.97
2022-09-23T16:23:35.897Z,94817.25
2022-09-23T16:26:34.843Z,94811.50
2022-09-23T16:29:02.555Z,94805.16
2022-09-23T16:31:32.963Z,94812.84
2022-09-23T16:34:02.798Z,94815.75
2022-09-23T16:36:35.976Z,94816.09
2022-09-23T16:39:05.818Z,94814.59
2022-09-23T16:41:33.104Z,94822.50
2022-09-23T16:44:01.817Z,94818.72
2022-09-23T16:46:30.008Z,94825.81
2022-09-23T16:48:58.284Z,94824.00
2022-09-23T16:51:31.081Z,94825.97
2022-09-23T16:53:59.519Z,94832.03
2022-09-23T16:56:29.419Z,94836.47
2022-09-23T16:58:57.121Z,94838.84
2022-09-23T17:01:45.149Z,94840.88
2022-09-23T17:04:13.594Z,94845.44
2022-09-23T17:06:52.076Z,94850.94
2022-09-23T17:09:21.167Z,94853.84
2022-09-23T17:12:30.587Z,94867.63
2022-09-23T17:14:57.548Z,94865.75
2022-09-23T17:17:24.637Z,94866.91
2022-09-23T17:19:51.673Z,94871.06
2022-09-23T17:22:18.575Z,94866.31
2022-09-23T17:24:45.733Z,94869.16
2022-09-23T17:27:12.768Z,94870.44
2022-09-23T17:29:39.789Z,94875.66
2022-09-23T17:32:08.698Z,94872.97
2022-09-23T17:34:35.655Z,94874.25
2022-09-23T17:37:02.801Z,94878.84
2022-09-23T17:39:29.829Z,94878.53
2022-09-23T17:41:58.705Z,94873.88
2022-09-23T17:44:25.732Z,94879.88
2022-09-23T17:46:52.742Z,94874.25
2022-09-23T17:49:20.468Z,94875.97
2022-09-23T17:51:47.428Z,94880.03
2022-09-23T17:54:15.217Z,94886.34
2022-09-23T17:56:42.925Z,94880.72
2022-09-23T17:59:12.789Z,94880.47
2022-09-23T18:01:39.994Z,94886.75
2022-09-23T18:04:07.250Z,94891.44
2022-09-23T18:06:37.150Z,94895.66
2022-09-23T18:09:07.226Z,94898.16
2022-09-23T18:11:39.803Z,94894.50
2022-09-23T18:14:13.449Z,94905.41
2022-09-23T18:16:42.464Z,94907.53
2022-09-23T18:19:12.580Z,94898.56
2022-09-23T18:21:42.488Z,94905.38
2022-09-23T18:27:00.003Z,94906.81
2022-09-23T18:29:27.268Z,94907.06
2022-09-23T18:31:54.608Z,94910.91
2022-09-23T18:34:22.001Z,94906.72
2022-09-23T18:36:48.997Z,94906.66
2022-09-23T18:39:16.076Z,94904.84
2022-09-23T18:41:43.283Z,94911.44
2022-09-23T18:44:10.338Z,94918.03
2022-09-23T18:46:37.382Z,94919.44
2022-09-23T18:49:23.588Z,94922.94
2022-09-23T18:51:56.037Z,94925.13
2022-09-23T18:54:24.943Z,94926.09
2022-09-23T18:56:54.623Z,94922.00
2022-09-23T18:59:25.328Z,94931.84
2022-09-23T19:01:55.629Z,94933.03
2022-09-23T19:04:24.733Z,94932.13
2022-09-23T19:06:52.070Z,94929.81
2022-09-23T19:09:19.371Z,94939.28
2022-09-23T19:11:46.783Z,94932.78
2022-09-23T19:14:13.975Z,94934.28
2022-09-23T19:16:41.770Z,94935.38
2022-09-23T19:19:09.835Z,94938.50
2022-09-23T19:21:37.379Z,94944.56
2022-09-23T19:24:07.332Z,94936.06
2022-09-23T19:26:39.361Z,94927.47
2022-09-23T19:29:08.564Z,94938.81
2022-09-23T19:31:40.963Z,94945.59
2022-09-23T19:34:13.201Z,94936.22
2022-09-23T19:36:43.052Z,94934.63
2022-09-23T19:39:27.819Z,94934.72
2022-09-23T19:41:59.146Z,94936.63
2022-09-23T19:44:27.123Z,94941.00
2022-09-23T19:46:56.742Z,94947.16
2022-09-23T19:49:25.129Z,94938.88
2022-09-23T19:51:56.064Z,94940.19
2022-09-23T19:54:26.238Z,94944.47
2022-09-23T19:56:53.245Z,94946.59
2022-09-23T19:59:20.308Z,94938.50
2022-09-23T20:01:50.365Z,94943.38
2022-09-23T20:04:17.605Z,94941.88
2022-09-23T20:06:46.148Z,94933.13
2022-09-23T20:09:13.195Z,94938.38
2022-09-23T20:11:43.037Z,94939.25
2022-09-23T20:14:10.518Z,94934.44
2022-09-23T20:16:40.605Z,94939.56
2022-09-23T20:19:07.673Z,94946.56
2022-09-23T20:21:35.547Z,94939.56
2022-09-23T20:24:05.842Z,94942.34
2022-09-23T20:26:51.410Z,94944.28
2022-09-23T20:29:18.491Z,94948.66
2022-09-23T20:31:45.532Z,94948.94
2022-09-23T20:34:12.790Z,94950.81
2022-09-23T20:36:41.472Z,94957.56
2022-09-23T20:39:10.116Z,94955.97
2022-09-23T20:41:38.552Z,94959.63
2022-09-23T20:44:09.559Z,94962.38
2022-09-23T20:46:36.710Z,94958.72
2022-09-23T20:49:04.464Z,94956.31
2022-09-23T20:51:33.597Z,94957.75
2022-09-23T20:54:01.066Z,94955.63
2022-09-23T20:56:29.294Z,94962.06
2022-09-23T20:59:04.110Z,94961.56
2022-09-23T21:01:37.178Z,94967.44
2022-09-23T21:04:06.021Z,94956.69
2022-09-23T21:06:35.435Z,94961.78
2022-09-23T21:09:03.174Z,94955.88
2022-09-23T21:11:30.134Z,94961.34
2022-09-23T21:13:58.870Z,94961.41
2022-09-23T21:16:26.033Z,94961.47
2022-09-23T21:18:53.134Z,94962.25
2022-09-23T21:21:22.416Z,94950.72
2022-09-23T21:23:50.538Z,94953.41
2022-09-23T21:26:25.506Z,94952.31
2022-09-23T21:28:55.582Z,94943.75
2022-09-23T21:31:36.788Z,94953.41
2022-09-23T21:34:08.892Z,94959.28
2022-09-23T21:36:41.849Z,94960.09
2022-09-23T21:39:10.646Z,94955.16
2022-09-23T21:41:38.526Z,94958.09
2022-09-23T21:44:06.766Z,94962.69
2022-09-23T21:46:35.386Z,94963.34
2022-09-23T21:49:03.966Z,94961.88
2022-09-23T21:51:41.149Z,94966.25
2022-09-23T21:54:14.323Z,94973.22
2022-09-23T21:56:42.028Z,94973.66
2022-09-23T21:59:09.274Z,94964.44
2022-09-23T22:01:39.508Z,94965.06
2022-09-23T22:04:13.406Z,94964.56
2022-09-23T22:06:40.687Z,94968.50
2022-09-23T22:09:12.040Z,94963.63
2022-09-23T22:11:58.143Z,94959.34
2022-09-23T22:14:26.209Z,94953.94
2022-09-23T22:16:57.672Z,94963.28
2022-09-23T22:19:27.169Z,94963.22
2022-09-23T22:21:56.128Z,94965.09
2022-09-23T22:24:23.371Z,94967.03
2022-09-23T22:26:50.567Z,94974.31
2022-09-23T22:29:36.486Z,94969.53
2022-09-23T22:32:24.249Z,94970.84
2022-09-23T22:34:52.408Z,94969.44
2022-09-23T22:37:22.167Z,94971.78
2022-09-23T22:39:49.142Z,94968.53
2022-09-23T22:42:16.401Z,94977.09
2022-09-23T22:44:43.367Z,94968.53
2022-09-23T22:47:10.714Z,94968.31
2022-09-23T22:49:37.748Z,94965.63
2022-09-23T22:52:08.105Z,94963.50
2022-09-23T22:54:35.807Z,94962.50
2022-09-23T22:57:07.436Z,94966.31
2022-09-23T22:59:35.110Z,94971.75
2022-09-23T23:02:03.184Z,94971.22
2022-09-23T23:04:31.211Z,94963.97
2022-09-23T23:06:59.003Z,94969.63
2022-09-23T23:09:26.267Z,94966.44
2022-09-23T23:11:53.222Z,94966.97
2022-09-23T23:14:20.270Z,94969.13
2022-09-23T23:16:47.665Z,94973.47
2022-09-23T23:19:17.376Z,94969.25
2022-09-23T23:21:45.726Z,94974.09
2022-09-23T23:24:23.557Z,94977.34
2022-09-23T23:26:51.466Z,94979.25
2022-09-23T23:29:21.101Z,94969.88
2022-09-23T23:31:48.725Z,94975.53
2022-09-23T23:34:18.232Z,94982.25
2022-09-23T23:36:46.568Z,94979.03
2022-09-23T23:39:14.501Z,94972.59
2022-09-23T23:41:41.830Z,94966.44
2022-09-23T23:44:08.890Z,94963.25
2022-09-23T23:46:37.559Z,94963.53
2022-09-23T23:49:04.797Z,94955.53
2022-09-23T23:51:31.763Z,94956.06
2022-09-23T23:53:59.227Z,94959.81
2022-09-23T23:56:27.106Z,94957.16
2022-09-23T23:58:55.949Z,94961.44
